sensor_id;sensor_type;location;lat;lon;timestamp;pressure;altitude;pressure_sealevel;temperature;humidity
26697;BME280;14312;52.614;13.496;2023-02-15T11:34:54;102100.47;;;5.04;96.12
26697;BME280;14312;52.614;13.496;2023-02-15T11:43:48;102081.69;;;7.52;94.82
26697;BME280;14312;52.614;13.496;2023-02-15T11:46:36;102076.00;;;8.41;93.93
26697;BME280;14312;52.614;13.496;2023-02-15T11:49:33;102077.16;;;9.37;91.83
26697;BME280;14312;52.614;13.496;2023-02-15T11:52:20;102068.09;;;10.27;90.85
26697;BME280;14312;52.614;13.496;2023-02-15T11:55:12;102072.19;;;11.21;89.05
26697;BME280;14312;52.614;13.496;2023-02-15T11:58:30;102060.72;;;12.16;84.94
26697;BME280;14312;52.614;13.496;2023-02-15T12:01:30;102068.84;;;12.84;82.45
26697;BME280;14312;52.614;13.496;2023-02-15T12:04:22;102065.84;;;13.42;82.19
26697;BME280;14312;52.614;13.496;2023-02-15T12:10:20;102048.81;;;14.68;78.53
26697;BME280;14312;52.614;13.496;2023-02-15T12:13:13;102052.63;;;15.30;78.52
26697;BME280;14312;52.614;13.496;2023-02-15T12:16:06;102042.88;;;15.92;77.07
26697;BME280;14312;52.614;13.496;2023-02-15T12:18:55;102047.78;;;16.57;77.04
26697;BME280;14312;52.614;13.496;2023-02-15T12:21:42;102035.25;;;17.18;77.00
26697;BME280;14312;52.614;13.496;2023-02-15T12:24:31;102025.19;;;17.74;74.81
26697;BME280;14312;52.614;13.496;2023-02-15T12:27:20;102022.41;;;18.22;74.35
26697;BME280;14312;52.614;13.496;2023-02-15T12:30:31;102021.22;;;18.72;71.19
26697;BME280;14312;52.614;13.496;2023-02-15T12:33:27;102017.34;;;19.05;66.81
26697;BME280;14312;52.614;13.496;2023-02-15T12:36:18;102014.44;;;19.16;65.83
26697;BME280;14312;52.614;13.496;2023-02-15T12:42:15;102001.69;;;19.07;62.69
26697;BME280;14312;52.614;13.496;2023-02-15T12:45:04;101999.75;;;18.97;59.30
26697;BME280;14312;52.614;13.496;2023-02-15T12:51:07;101985.53;;;18.70;59.59
26697;BME280;14312;52.614;13.496;2023-02-15T12:53:54;101977.44;;;18.70;59.46
26697;BME280;14312;52.614;13.496;2023-02-15T12:56:40;101978.00;;;18.72;57.88
26697;BME280;14312;52.614;13.496;2023-02-15T12:59:26;101979.06;;;18.66;55.41
26697;BME280;14312;52.614;13.496;2023-02-15T13:02:53;101970.22;;;18.44;53.70
26697;BME280;14312;52.614;13.496;2023-02-15T13:05:39;101970.75;;;18.09;54.44
26697;BME280;14312;52.614;13.496;2023-02-15T13:08:50;101960.28;;;17.85;54.73
26697;BME280;14312;52.614;13.496;2023-02-15T13:11:38;101958.84;;;17.73;55.88
26697;BME280;14312;52.614;13.496;2023-02-15T13:14:31;101956.50;;;17.81;57.91
26697;BME280;14312;52.614;13.496;2023-02-15T13:17:21;101950.03;;;18.14;57.23
26697;BME280;14312;52.614;13.496;2023-02-15T13:20:28;101937.41;;;18.57;56.78
26697;BME280;14312;52.614;13.496;2023-02-15T13:23:29;101935.94;;;18.86;54.91
26697;BME280;14312;52.614;13.496;2023-02-15T13:26:19;101938.47;;;19.08;54.52
26697;BME280;14312;52.614;13.496;2023-02-15T13:29:10;101931.78;;;19.31;55.29
26697;BME280;14312;52.614;13.496;2023-02-15T13:32:06;101932.16;;;19.65;54.88
26697;BME280;14312;52.614;13.496;2023-02-15T13:34:58;101918.09;;;19.83;54.06
26697;BME280;14312;52.614;13.496;2023-02-15T13:40:42;101902.13;;;19.76;50.41
26697;BME280;14312;52.614;13.496;2023-02-15T13:44:02;101909.69;;;19.69;52.45
26697;BME280;14312;52.614;13.496;2023-02-15T13:47:10;101905.38;;;19.68;49.10
26697;BME280;14312;52.614;13.496;2023-02-15T13:55:55;101903.66;;;19.27;49.63
26697;BME280;14312;52.614;13.496;2023-02-15T14:02:30;101911.63;;;18.81;49.34
26697;BME280;14312;52.614;13.496;2023-02-15T14:09:16;101917.34;;;18.48;51.22
26697;BME280;14312;52.614;13.496;2023-02-15T14:12:14;101913.78;;;18.42;50.18
26697;BME280;14312;52.614;13.496;2023-02-15T14:15:34;101914.09;;;18.46;50.72
26697;BME280;14312;52.614;13.496;2023-02-15T14:18:31;101908.16;;;18.49;47.16
26697;BME280;14312;52.614;13.496;2023-02-15T14:21:30;101904.59;;;18.33;47.94
26697;BME280;14312;52.614;13.496;2023-02-15T14:24:37;101908.00;;;18.18;47.98
26697;BME280;14312;52.614;13.496;2023-02-15T14:27:45;101896.06;;;18.14;49.16
26697;BME280;14312;52.614;13.496;2023-02-15T14:30:38;101906.84;;;18.09;49.25
26697;BME280;14312;52.614;13.496;2023-02-15T14:33:34;101897.09;;;18.08;50.20
26697;BME280;14312;52.614;13.496;2023-02-15T14:36:23;101893.91;;;18.11;49.26
26697;BME280;14312;52.614;13.496;2023-02-15T14:39:22;101896.38;;;18.18;49.72
26697;BME280;14312;52.614;13.496;2023-02-15T14:42:48;101892.88;;;18.22;47.47
26697;BME280;14312;52.614;13.496;2023-02-15T14:46:03;101881.81;;;18.19;48.32
26697;BME280;14312;52.614;13.496;2023-02-15T14:48:56;101887.41;;;18.12;46.25
26697;BME280;14312;52.614;13.496;2023-02-15T15:00:03;101881.13;;;17.65;49.47
26697;BME280;14312;52.614;13.496;2023-02-15T15:02:52;101873.66;;;17.50;49.55
26697;BME280;14312;52.614;13.496;2023-02-15T15:05:49;101865.19;;;17.36;49.40
26697;BME280;14312;52.614;13.496;2023-02-15T15:08:38;101865.34;;;17.25;50.35
26697;BME280;14312;52.614;13.496;2023-02-15T15:26:26;101873.75;;;17.06;51.37
26697;BME280;14312;52.614;13.496;2023-02-15T15:29:12;101878.41;;;17.11;52.06
26697;BME280;14312;52.614;13.496;2023-02-15T15:31:59;101883.38;;;17.24;52.15
26697;BME280;14312;52.614;13.496;2023-02-15T15:49:55;101864.72;;;17.44;52.86
26697;BME280;14312;52.614;13.496;2023-02-15T15:52:47;101872.16;;;17.32;53.26
26697;BME280;14312;52.614;13.496;2023-02-15T15:55:35;101863.91;;;17.17;53.71
26697;BME280;14312;52.614;13.496;2023-02-15T15:58:21;101864.75;;;16.96;53.78
26697;BME280;14312;52.614;13.496;2023-02-15T16:01:10;101861.19;;;16.68;53.97
26697;BME280;14312;52.614;13.496;2023-02-15T16:03:59;101867.72;;;16.34;54.00
26697;BME280;14312;52.614;13.496;2023-02-15T16:06:45;101859.59;;;15.95;54.54
26697;BME280;14312;52.614;13.496;2023-02-15T16:09:31;101860.31;;;15.57;54.88
26697;BME280;14312;52.614;13.496;2023-02-15T16:12:18;101855.59;;;15.19;55.46
26697;BME280;14312;52.614;13.496;2023-02-15T16:15:18;101853.16;;;14.78;54.76
26697;BME280;14312;52.614;13.496;2023-02-15T16:18:05;101849.59;;;14.37;56.04
26697;BME280;14312;52.614;13.496;2023-02-15T16:21:00;101843.31;;;13.97;55.69
26697;BME280;14312;52.614;13.496;2023-02-15T16:23:59;101849.31;;;13.57;56.09
26697;BME280;14312;52.614;13.496;2023-02-15T16:27:00;101844.53;;;13.18;56.79
26697;BME280;14312;52.614;13.496;2023-02-15T16:29:51;101840.88;;;12.82;57.88
26697;BME280;14312;52.614;13.496;2023-02-15T16:32:37;101849.03;;;12.51;58.24
26697;BME280;14312;52.614;13.496;2023-02-15T16:35:24;101840.34;;;12.19;58.56
26697;BME280;14312;52.614;13.496;2023-02-15T16:38:10;101848.38;;;11.94;59.15
26697;BME280;14312;52.614;13.496;2023-02-15T16:40:59;101846.50;;;11.70;59.81
26697;BME280;14312;52.614;13.496;2023-02-15T16:43:48;101842.56;;;11.48;59.93
26697;BME280;14312;52.614;13.496;2023-02-15T16:46:47;101848.84;;;11.28;60.04
26697;BME280;14312;52.614;13.496;2023-02-15T16:49:34;101844.41;;;11.09;60.72
26697;BME280;14312;52.614;13.496;2023-02-15T16:52:23;101828.09;;;10.92;60.92
26697;BME280;14312;52.614;13.496;2023-02-15T16:55:24;101850.72;;;10.77;60.92
26697;BME280;14312;52.614;13.496;2023-02-15T16:58:16;101854.66;;;10.61;61.44
26697;BME280;14312;52.614;13.496;2023-02-15T17:01:06;101851.22;;;10.47;61.73
26697;BME280;14312;52.614;13.496;2023-02-15T17:04:30;101854.94;;;10.33;61.40
26697;BME280;14312;52.614;13.496;2023-02-15T17:07:19;101860.31;;;10.20;62.13
26697;BME280;14312;52.614;13.496;2023-02-15T17:10:26;101857.44;;;10.08;62.13
26697;BME280;14312;52.614;13.496;2023-02-15T17:13:13;101856.19;;;9.98;62.90
26697;BME280;14312;52.614;13.496;2023-02-15T17:18:46;101846.38;;;9.78;63.11
26697;BME280;14312;52.614;13.496;2023-02-15T17:21:35;101845.56;;;9.71;63.31
26697;BME280;14312;52.614;13.496;2023-02-15T17:24:43;101832.63;;;9.62;63.06
26697;BME280;14312;52.614;13.496;2023-02-15T17:27:30;101837.34;;;9.53;63.60
26697;BME280;14312;52.614;13.496;2023-02-15T17:30:36;101841.44;;;9.49;63.56
26697;BME280;14312;52.614;13.496;2023-02-15T17:39:20;101834.03;;;9.38;64.56
26697;BME280;14312;52.614;13.496;2023-02-15T17:42:08;101835.66;;;9.39;65.00
26697;BME280;14312;52.614;13.496;2023-02-15T17:44:54;101837.31;;;9.40;64.88
26697;BME280;14312;52.614;13.496;2023-02-15T17:47:40;101833.63;;;9.41;64.91
26697;BME280;14312;52.614;13.496;2023-02-15T17:50:27;101839.34;;;9.38;64.62
26697;BME280;14312;52.614;13.496;2023-02-15T17:53:16;101841.81;;;9.33;64.37
26697;BME280;14312;52.614;13.496;2023-02-15T17:56:03;101843.44;;;9.27;64.35
26697;BME280;14312;52.614;13.496;2023-02-15T17:58:55;101837.28;;;9.20;64.26
26697;BME280;14312;52.614;13.496;2023-02-15T18:01:45;101844.63;;;9.12;64.28
26697;BME280;14312;52.614;13.496;2023-02-15T18:04:51;101830.28;;;8.99;64.53
26697;BME280;14312;52.614;13.496;2023-02-15T18:07:55;101836.78;;;8.90;64.63
26697;BME280;14312;52.614;13.496;2023-02-15T18:11:00;101835.31;;;8.81;64.56
26697;BME280;14312;52.614;13.496;2023-02-15T18:14:07;101830.56;;;8.70;64.39
26697;BME280;14312;52.614;13.496;2023-02-15T18:16:53;101841.78;;;8.59;64.60
26697;BME280;14312;52.614;13.496;2023-02-15T18:19:41;101832.94;;;8.52;64.69
26697;BME280;14312;52.614;13.496;2023-02-15T18:22:28;101827.97;;;8.42;65.10
26697;BME280;14312;52.614;13.496;2023-02-15T18:25:16;101827.31;;;8.34;64.98
26697;BME280;14312;52.614;13.496;2023-02-15T18:28:02;101824.78;;;8.25;65.38
26697;BME280;14312;52.614;13.496;2023-02-15T18:30:48;101818.59;;;8.18;65.44
26697;BME280;14312;52.614;13.496;2023-02-15T18:33:37;101817.56;;;8.13;65.21
26697;BME280;14312;52.614;13.496;2023-02-15T18:36:42;101821.19;;;8.05;65.56
26697;BME280;14312;52.614;13.496;2023-02-15T18:39:37;101821.97;;;7.99;65.93
26697;BME280;14312;52.614;13.496;2023-02-15T18:42:27;101817.44;;;7.93;65.81
26697;BME280;14312;52.614;13.496;2023-02-15T18:45:16;101820.44;;;7.90;66.03
26697;BME280;14312;52.614;13.496;2023-02-15T18:48:03;101827.19;;;7.86;66.12
26697;BME280;14312;52.614;13.496;2023-02-15T18:50:49;101823.25;;;7.82;66.00
26697;BME280;14312;52.614;13.496;2023-02-15T18:53:35;101812.41;;;7.77;65.91
26697;BME280;14312;52.614;13.496;2023-02-15T18:56:22;101807.88;;;7.71;66.15
26697;BME280;14312;52.614;13.496;2023-02-15T18:59:14;101819.25;;;7.65;65.94
26697;BME280;14312;52.614;13.496;2023-02-15T19:02:01;101813.06;;;7.58;65.88
26697;BME280;14312;52.614;13.496;2023-02-15T19:04:47;101811.19;;;7.52;65.90
26697;BME280;14312;52.614;13.496;2023-02-15T19:07:34;101809.66;;;7.42;65.77
26697;BME280;14312;52.614;13.496;2023-02-15T19:10:23;101807.13;;;7.34;66.26
26697;BME280;14312;52.614;13.496;2023-02-15T19:13:11;101803.41;;;7.29;66.36
26697;BME280;14312;52.614;13.496;2023-02-15T19:15:57;101807.00;;;7.21;66.42
26697;BME280;14312;52.614;13.496;2023-02-15T19:18:44;101805.13;;;7.15;66.39
26697;BME280;14312;52.614;13.496;2023-02-15T19:21:30;101796.28;;;7.08;66.59
26697;BME280;14312;52.614;13.496;2023-02-15T19:24:22;101799.28;;;7.05;66.37
26697;BME280;14312;52.614;13.496;2023-02-15T19:27:26;101785.16;;;6.98;66.53
26697;BME280;14312;52.614;13.496;2023-02-15T19:30:18;101787.56;;;6.93;66.81
26697;BME280;14312;52.614;13.496;2023-02-15T19:33:05;101782.81;;;6.88;66.97
26697;BME280;14312;52.614;13.496;2023-02-15T19:35:53;101783.38;;;6.84;67.14
26697;BME280;14312;52.614;13.496;2023-02-15T19:38:42;101781.28;;;6.79;66.92
26697;BME280;14312;52.614;13.496;2023-02-15T19:41:31;101784.50;;;6.75;66.97
26697;BME280;14312;52.614;13.496;2023-02-15T19:44:18;101772.63;;;6.71;67.06
26697;BME280;14312;52.614;13.496;2023-02-15T19:47:04;101765.06;;;6.67;67.45
26697;BME280;14312;52.614;13.496;2023-02-15T19:49:50;101773.38;;;6.64;67.24
26697;BME280;14312;52.614;13.496;2023-02-15T19:52:36;101767.59;;;6.61;67.31
26697;BME280;14312;52.614;13.496;2023-02-15T19:55:28;101760.22;;;6.56;67.53
26697;BME280;14312;52.614;13.496;2023-02-15T19:58:14;101755.31;;;6.53;67.81
26697;BME280;14312;52.614;13.496;2023-02-15T20:01:03;101751.66;;;6.54;68.12
26697;BME280;14312;52.614;13.496;2023-02-15T20:03:50;101749.63;;;6.56;67.88
26697;BME280;14312;52.614;13.496;2023-02-15T20:06:36;101746.00;;;6.57;67.89
26697;BME280;14312;52.614;13.496;2023-02-15T20:09:29;101741.06;;;6.54;67.59
26697;BME280;14312;52.614;13.496;2023-02-15T20:12:25;101738.16;;;6.49;67.41
26697;BME280;14312;52.614;13.496;2023-02-15T20:15:25;101742.19;;;6.45;67.29
26697;BME280;14312;52.614;13.496;2023-02-15T20:18:11;101732.34;;;6.39;67.47
26697;BME280;14312;52.614;13.496;2023-02-15T20:20:58;101737.34;;;6.34;67.41
26697;BME280;14312;52.614;13.496;2023-02-15T20:23:44;101730.16;;;6.28;67.46
26697;BME280;14312;52.614;13.496;2023-02-15T20:26:31;101724.78;;;6.21;67.58
26697;BME280;14312;52.614;13.496;2023-02-15T20:29:18;101715.75;;;6.16;67.58
26697;BME280;14312;52.614;13.496;2023-02-15T20:32:04;101719.75;;;6.12;67.80
26697;BME280;14312;52.614;13.496;2023-02-15T20:34:49;101719.31;;;6.08;67.81
26697;BME280;14312;52.614;13.496;2023-02-15T20:37:35;101718.03;;;6.04;67.90
26697;BME280;14312;52.614;13.496;2023-02-15T20:40:25;101722.88;;;6.01;68.07
26697;BME280;14312;52.614;13.496;2023-02-15T20:43:13;101725.88;;;5.98;67.72
26697;BME280;14312;52.614;13.496;2023-02-15T20:46:00;101729.91;;;5.94;67.89
26697;BME280;14312;52.614;13.496;2023-02-15T20:48:46;101726.00;;;5.89;68.04
26697;BME280;14312;52.614;13.496;2023-02-15T20:51:32;101729.31;;;5.83;68.05
26697;BME280;14312;52.614;13.496;2023-02-15T20:54:21;101738.63;;;5.79;67.98
26697;BME280;14312;52.614;13.496;2023-02-15T20:57:11;101734.72;;;5.75;67.91
26697;BME280;14312;52.614;13.496;2023-02-15T20:59:57;101733.41;;;5.71;68.16
26697;BME280;14312;52.614;13.496;2023-02-15T21:02:48;101730.50;;;5.66;68.36
26697;BME280;14312;52.614;13.496;2023-02-15T21:05:34;101730.84;;;5.63;68.46
26697;BME280;14312;52.614;13.496;2023-02-15T21:08:22;101737.13;;;5.62;68.36
26697;BME280;14312;52.614;13.496;2023-02-15T21:11:18;101734.22;;;5.57;68.62
26697;BME280;14312;52.614;13.496;2023-02-15T21:14:29;101727.66;;;5.53;68.44
26697;BME280;14312;52.614;13.496;2023-02-15T21:17:15;101721.06;;;5.49;68.48
26697;BME280;14312;52.614;13.496;2023-02-15T21:20:01;101722.44;;;5.45;68.65
26697;BME280;14312;52.614;13.496;2023-02-15T21:22:47;101712.22;;;5.42;68.47
26697;BME280;14312;52.614;13.496;2023-02-15T21:25:35;101719.53;;;5.40;68.52
26697;BME280;14312;52.614;13.496;2023-02-15T21:28:23;101723.50;;;5.36;68.61
26697;BME280;14312;52.614;13.496;2023-02-15T21:31:16;101718.59;;;5.33;68.63
26697;BME280;14312;52.614;13.496;2023-02-15T21:34:02;101718.13;;;5.29;68.58
26697;BME280;14312;52.614;13.496;2023-02-15T21:36:48;101720.94;;;5.28;68.61
26697;BME280;14312;52.614;13.496;2023-02-15T21:39:37;101717.84;;;5.24;68.72
26697;BME280;14312;52.614;13.496;2023-02-15T21:42:23;101714.72;;;5.21;68.65
26697;BME280;14312;52.614;13.496;2023-02-15T21:45:28;101729.28;;;5.17;68.66
26697;BME280;14312;52.614;13.496;2023-02-15T21:48:32;101720.25;;;5.11;68.85
26697;BME280;14312;52.614;13.496;2023-02-15T21:51:18;101723.41;;;5.06;68.86
26697;BME280;14312;52.614;13.496;2023-02-15T21:54:39;101731.88;;;5.02;69.08
26697;BME280;14312;52.614;13.496;2023-02-15T21:57:26;101731.38;;;4.98;69.17
26697;BME280;14312;52.614;13.496;2023-02-15T22:03:04;101726.47;;;4.95;69.25
26697;BME280;14312;52.614;13.496;2023-02-15T22:05:50;101725.66;;;4.95;69.29
26697;BME280;14312;52.614;13.496;2023-02-15T22:08:36;101721.53;;;4.92;69.29
26697;BME280;14312;52.614;13.496;2023-02-15T22:11:22;101726.97;;;4.91;69.17
26697;BME280;14312;52.614;13.496;2023-02-15T22:14:35;101734.09;;;4.90;69.04
26697;BME280;14312;52.614;13.496;2023-02-15T22:17:24;101727.53;;;4.86;69.26
26697;BME280;14312;52.614;13.496;2023-02-15T22:20:14;101718.31;;;4.82;69.44
26697;BME280;14312;52.614;13.496;2023-02-15T22:23:01;101719.66;;;4.78;69.26
26697;BME280;14312;52.614;13.496;2023-02-15T22:25:52;101717.19;;;4.77;69.51
26697;BME280;14312;52.614;13.496;2023-02-15T22:28:40;101720.03;;;4.75;69.57
26697;BME280;14312;52.614;13.496;2023-02-15T22:31:27;101711.44;;;4.73;69.54
26697;BME280;14312;52.614;13.496;2023-02-15T22:34:29;101709.78;;;4.72;69.64
26697;BME280;14312;52.614;13.496;2023-02-15T22:37:16;101717.06;;;4.70;69.38
26697;BME280;14312;52.614;13.496;2023-02-15T22:40:02;101708.50;;;4.68;69.19
26697;BME280;14312;52.614;13.496;2023-02-15T22:42:49;101703.56;;;4.65;69.24
26697;BME280;14312;52.614;13.496;2023-02-15T22:45:36;101714.47;;;4.62;69.47
26697;BME280;14312;52.614;13.496;2023-02-15T22:48:21;101713.19;;;4.58;69.05
26697;BME280;14312;52.614;13.496;2023-02-15T22:51:16;101704.97;;;4.53;69.10
26697;BME280;14312;52.614;13.496;2023-02-15T22:54:03;101700.03;;;4.50;69.27
26697;BME280;14312;52.614;13.496;2023-02-15T22:56:50;101710.94;;;4.47;69.40
26697;BME280;14312;52.614;13.496;2023-02-15T22:59:37;101700.72;;;4.44;69.65
26697;BME280;14312;52.614;13.496;2023-02-15T23:02:23;101704.34;;;4.43;69.60
26697;BME280;14312;52.614;13.496;2023-02-15T23:05:29;101694.16;;;4.40;69.29
26697;BME280;14312;52.614;13.496;2023-02-15T23:08:16;101690.03;;;4.37;69.51
26697;BME280;14312;52.614;13.496;2023-02-15T23:11:02;101695.47;;;4.36;69.77
26697;BME280;14312;52.614;13.496;2023-02-15T23:13:48;101687.56;;;4.36;69.86
26697;BME280;14312;52.614;13.496;2023-02-15T23:16:34;101689.56;;;4.33;69.80
26697;BME280;14312;52.614;13.496;2023-02-15T23:19:22;101700.09;;;4.33;69.98
26697;BME280;14312;52.614;13.496;2023-02-15T23:22:17;101694.50;;;4.37;70.20
26697;BME280;14312;52.614;13.496;2023-02-15T23:25:07;101693.84;;;4.34;69.97
26697;BME280;14312;52.614;13.496;2023-02-15T23:27:54;101692.84;;;4.36;69.75
26697;BME280;14312;52.614;13.496;2023-02-15T23:30:43;101687.41;;;4.37;69.97
26697;BME280;14312;52.614;13.496;2023-02-15T23:33:32;101693.66;;;4.36;69.82
26697;BME280;14312;52.614;13.496;2023-02-15T23:39:26;101690.88;;;4.38;69.98
26697;BME280;14312;52.614;13.496;2023-02-15T23:42:32;101694.66;;;4.35;69.71
26697;BME280;14312;52.614;13.496;2023-02-15T23:45:21;101693.22;;;4.32;69.94
26697;BME280;14312;52.614;13.496;2023-02-15T23:48:21;101698.50;;;4.32;69.92
26697;BME280;14312;52.614;13.496;2023-02-15T23:51:30;101693.53;;;4.29;69.93
26697;BME280;14312;52.614;13.496;2023-02-15T23:54:18;101695.53;;;4.27;69.84
26697;BME280;14312;52.614;13.496;2023-02-15T23:57:04;101698.69;;;4.23;69.64
26697;BME280;14312;52.614;13.496;2023-02-15T23:59:50;101696.22;;;4.21;70.03
